This is the latest recevied weather packets stored in our database for station/object DM4SB-13. If no packets are shown the sender has not sent any weather packets the latest 10 day(s).
| Time | Temp. | Humidity | Pressure | Rain* | Wind** | Luminosity | Snow |
|---|---|---|---|---|---|---|---|
| 1777602617 | 9.44° C | 39% | 1028.9 hPa | - | - | - | - |
| 1777602018 | 10° C | 38% | 1029 hPa | - | - | - | - |
| 1777587018 | 12.78° C | 30% | 1028.4 hPa | - | - | - | - |
| 1777586418 | 12.78° C | 30% | 1028.4 hPa | - | - | - | - |
| 1777583418 | 13.89° C | 31% | 1028.1 hPa | - | - | - | - |
| 1777582818 | 13.89° C | 32% | 1028.1 hPa | - | - | - | - |
| 1777581018 | 13.89° C | 31% | 1027.9 hPa | - | - | - | - |
| 1777580418 | 14.44° C | 31% | 1027.9 hPa | - | - | - | - |
| 1777579818 | 14.44° C | 31% | 1027.7 hPa | - | - | - | - |
| 1777578618 | 15° C | 29% | 1027.4 hPa | - | - | - | - |
| 1777578018 | 15° C | 29% | 1027.4 hPa | - | - | - | - |
| 1777577417 | 15.56° C | 29% | 1027.1 hPa | - | - | - | - |
| 1777576818 | 15.56° C | 28% | 1027.1 hPa | - | - | - | - |
| 1777576218 | 16.11° C | 27% | 1026.9 hPa | - | - | - | - |
| 1777574418 | 16.67° C | 25% | 1026.6 hPa | - | - | - | - |
| 1777573818 | 17.22° C | 24% | 1026.5 hPa | - | - | - | - |
| 1777573218 | 17.22° C | 24% | 1026.4 hPa | - | - | - | - |
| 1777571418 | 18.33° C | 22% | 1026.3 hPa | - | - | - | - |
| 1777565418 | 22.22° C | 19% | 1025.7 hPa | - | - | - | - |
| 1777564818 | 22.78° C | 18% | 1025.7 hPa | - | - | - | - |
| 1777563618 | 23.89° C | 18% | 1025.8 hPa | - | - | - | - |
| 1777563017 | 24.44° C | 17% | 1025.7 hPa | - | - | - | - |
| 1777562418 | 25.56° C | 16% | 1025.6 hPa | - | - | - | - |
| 1777560618 | 35.56° C | 13% | 1025.7 hPa | - | - | - | - |
| 1777558818 | 37.78° C | 14% | 1025.7 hPa | - | - | - | - |
* Rain since midnight (hover to see other rain measurements)
** Current wind speed in m/s (hover to see current wind gust speed)